Time;durP1;ratioP1;P1;durP2;ratioP2;P2;SDS_P1;SDS_P2;PMS_P1;PMS_P2;Temp;Humidity;BMP_temperature;BMP_pressure;BME280_temperature;BME280_humidity;BME280_pressure;Samples;Min_cycle;Max_cycle;Signal;HPM_P1;HPM_P2
2020/12/09 00:01:30;;;;;;;43.13;25.20;;;4.20;99.90;;;1.74;100.00;100660.22;5111646;28;20196;-77
2020/12/09 00:04:18;;;;;;;42.47;24.67;;;4.20;99.90;;;1.72;100.00;100665.31;5113254;28;20254;-79
2020/12/09 00:07:04;;;;;;;46.83;26.63;;;4.20;99.90;;;1.75;100.00;100669.59;5116119;28;20217;-80
2020/12/09 00:09:49;;;;;;;46.07;26.03;;;4.20;99.90;;;1.74;100.00;100673.84;5121797;28;20289;-78
2020/12/09 00:12:35;;;;;;;44.67;25.63;;;4.20;99.90;;;1.74;100.00;100678.97;5123417;28;20228;-79
2020/12/09 00:15:20;;;;;;;39.30;24.67;;;4.30;99.90;;;1.73;100.00;100676.41;5111035;28;20205;-79
2020/12/09 00:18:05;;;;;;;41.70;24.97;;;4.30;99.90;;;1.73;100.00;100669.59;5107766;28;20311;-78
2020/12/09 00:20:51;;;;;;;46.63;25.20;;;4.30;99.90;;;1.75;100.00;100680.63;5100579;28;20209;-79
2020/12/09 00:23:37;;;;;;;45.23;25.30;;;4.30;99.90;;;1.73;100.00;100686.59;5110753;28;20225;-79
2020/12/09 00:26:25;;;;;;;40.80;25.03;;;4.30;99.90;;;1.73;100.00;100684.88;5121765;28;20265;-75
2020/12/09 00:29:10;;;;;;;37.63;23.93;;;4.30;99.90;;;1.74;100.00;100684.06;5122021;28;20212;-79
2020/12/09 00:31:55;;;;;;;45.30;25.00;;;4.30;99.90;;;1.82;100.00;100690.91;5122535;28;20228;-79
2020/12/09 00:34:41;;;;;;;40.40;24.60;;;4.30;99.90;;;1.84;100.00;100695.16;5129731;28;20238;-77
2020/12/09 00:37:26;;;;;;;41.60;25.83;;;4.30;99.90;;;1.82;100.00;100690.91;5116707;28;20195;-80
2020/12/09 00:40:12;;;;;;;42.50;25.13;;;4.30;99.90;;;1.84;100.00;100689.22;5113715;28;20263;-81
2020/12/09 00:42:57;;;;;;;40.70;24.20;;;4.30;99.90;;;1.81;100.00;100686.66;5118935;28;20294;-80
2020/12/09 00:45:43;;;;;;;47.10;23.87;;;4.30;99.90;;;1.82;100.00;100686.66;5133524;28;20212;-80
2020/12/09 00:48:28;;;;;;;43.20;25.30;;;4.30;99.90;;;1.84;100.00;100692.63;5124209;28;20200;-77
2020/12/09 00:51:19;;;;;;;41.87;23.70;;;4.30;99.90;;;1.87;100.00;100694.34;5118245;28;20220;-79
2020/12/09 00:54:05;;;;;;;42.53;25.23;;;4.40;99.90;;;1.87;100.00;100691.78;5122488;28;20221;-79
2020/12/09 00:56:51;;;;;;;41.73;25.27;;;4.30;99.90;;;1.84;100.00;100686.66;5121813;28;20274;-79
2020/12/09 00:59:36;;;;;;;42.13;25.30;;;4.40;99.90;;;1.85;100.00;100691.78;5123644;28;20205;-79
2020/12/09 01:02:21;;;;;;;41.47;25.40;;;4.40;99.90;;;1.83;100.00;100693.47;5121142;28;20217;-81
2020/12/09 01:05:09;;;;;;;42.67;25.60;;;4.30;99.90;;;1.82;100.00;100696.03;5125298;28;20204;-79
2020/12/09 01:07:54;;;;;;;44.93;25.27;;;4.40;99.90;;;1.82;100.00;100691.75;5122575;28;20723;-80
2020/12/09 01:10:40;;;;;;;44.43;25.17;;;4.40;99.90;;;1.77;100.00;100690.00;5115288;28;20752;-83
2020/12/09 01:13:26;;;;;;;42.07;25.27;;;4.40;99.90;;;1.69;100.00;100697.59;5121570;28;20734;-78
2020/12/09 01:16:15;;;;;;;40.90;24.13;;;4.40;99.90;;;1.70;100.00;100687.41;5107412;28;20586;-82
2020/12/09 01:19:00;;;;;;;44.60;26.27;;;4.40;99.90;;;1.73;100.00;100699.34;5105821;28;20201;-78
2020/12/09 01:21:45;;;;;;;38.43;24.20;;;4.40;99.90;;;1.75;100.00;100701.03;5122845;28;20216;-77
2020/12/09 01:24:31;;;;;;;41.57;25.80;;;4.40;99.90;;;1.78;100.00;100710.41;5114386;28;20225;-78
2020/12/09 01:27:23;;;;;;;41.37;25.20;;;4.40;99.90;;;1.75;100.00;100711.25;5112395;28;20291;-79
2020/12/09 01:30:09;;;;;;;40.90;24.27;;;4.30;99.90;;;1.72;100.00;100711.22;5108015;28;20229;-80
2020/12/09 01:32:55;;;;;;;41.87;25.30;;;4.30;99.90;;;1.72;100.00;100711.22;5105507;28;20233;-78
2020/12/09 01:35:40;;;;;;;40.00;24.30;;;4.30;99.90;;;1.71;100.00;100714.63;5110808;28;20213;-80
2020/12/09 01:38:26;;;;;;;38.20;25.57;;;4.30;99.90;;;1.73;100.00;100723.13;5105359;28;20209;-78
2020/12/09 01:41:11;;;;;;;42.07;24.57;;;4.30;99.90;;;1.76;100.00;100719.75;5111924;28;20240;-79
2020/12/09 01:43:56;;;;;;;39.77;24.13;;;4.30;99.90;;;1.77;100.00;100718.06;5109001;28;20305;-78
2020/12/09 01:46:43;;;;;;;40.97;25.03;;;4.30;99.90;;;1.79;100.00;100722.34;5105427;28;20205;-79
2020/12/09 01:49:28;;;;;;;42.93;24.97;;;4.30;99.90;;;1.84;100.00;100720.66;5105042;28;20209;-78
2020/12/09 01:52:15;;;;;;;38.67;24.00;;;4.30;99.90;;;1.83;100.00;100724.09;5105025;28;20523;-81
2020/12/09 01:55:00;;;;;;;38.57;23.40;;;4.30;99.90;;;1.80;100.00;100729.16;5117713;28;20209;-78
2020/12/09 01:57:46;;;;;;;40.40;24.23;;;4.30;99.90;;;1.80;100.00;100723.19;5106146;28;20204;-79
2020/12/09 02:00:35;;;;;;;38.30;23.73;;;4.30;99.90;;;1.81;100.00;100723.19;5102691;28;20217;-78
2020/12/09 02:03:21;;;;;;;44.13;24.97;;;4.30;99.90;;;1.83;100.00;100729.19;5110684;28;20220;-77
2020/12/09 02:06:07;;;;;;;45.77;26.97;;;4.30;99.90;;;1.93;100.00;100732.66;5120635;28;20212;-77
2020/12/09 02:08:52;;;;;;;45.33;26.63;;;4.30;99.90;;;2.03;100.00;100726.78;5101026;28;20283;-78
2020/12/09 02:11:37;;;;;;;52.27;31.37;;;4.40;99.90;;;2.07;100.00;100733.63;5105571;28;20213;-78
2020/12/09 02:14:24;;;;;;;51.60;29.53;;;4.30;99.90;;;2.10;100.00;100725.16;5101620;28;20606;-80
2020/12/09 02:17:09;;;;;;;49.27;28.50;;;4.30;99.90;;;2.06;100.00;100721.69;5110976;28;20652;-79
2020/12/09 02:19:55;;;;;;;49.60;28.43;;;4.30;99.90;;;2.06;100.00;100721.69;5107482;28;22334;-79
2020/12/09 02:22:51;;;;;;;50.83;28.53;;;4.30;99.90;;;2.17;100.00;100716.69;5104913;28;20303;-79
2020/12/09 02:25:36;;;;;;;51.87;29.40;;;4.40;99.90;;;2.20;100.00;100718.41;5101960;28;20248;-79
2020/12/09 02:28:21;;;;;;;54.90;31.20;;;4.40;99.90;;;2.19;100.00;100726.91;5115605;28;20207;-78
2020/12/09 02:31:07;;;;;;;52.57;30.67;;;4.40;99.90;;;2.24;100.00;100720.13;5121413;28;20212;-80
2020/12/09 02:33:54;;;;;;;57.47;31.63;;;4.40;99.90;;;2.26;100.00;100723.56;5101707;28;20729;-80
2020/12/09 02:36:39;;;;;;;57.07;31.43;;;4.40;99.90;;;2.21;100.00;100715.84;5102806;28;20252;-80
2020/12/09 02:39:33;;;;;;;53.53;30.20;;;4.40;99.90;;;2.20;100.00;100716.72;5111913;27;20270;-79
2020/12/09 02:42:18;;;;;;;56.43;30.90;;;4.40;99.90;;;2.21;100.00;100720.97;5107071;27;20744;-81
2020/12/09 02:45:04;;;;;;;56.77;31.20;;;4.50;99.90;;;2.19;100.00;100717.56;5119337;28;20200;-78
2020/12/09 02:47:49;;;;;;;51.60;29.50;;;4.50;99.90;;;2.18;100.00;100720.94;5120285;28;20200;-78
2020/12/09 02:50:34;;;;;;;51.63;30.13;;;4.50;99.90;;;2.19;100.00;100721.81;5109535;28;20252;-79
2020/12/09 02:53:19;;;;;;;55.33;31.13;;;4.50;99.90;;;2.20;100.00;100723.50;5110089;28;20228;-78
2020/12/09 02:56:05;;;;;;;51.57;29.57;;;4.50;99.90;;;2.22;100.00;100721.84;5109061;28;20288;-78
2020/12/09 02:58:51;;;;;;;54.27;30.03;;;4.50;99.90;;;2.23;100.00;100718.41;5113859;28;20659;-79
2020/12/09 03:01:36;;;;;;;53.73;29.43;;;4.50;99.90;;;2.26;100.00;100719.31;5104705;28;20572;-78
2020/12/09 03:04:21;;;;;;;52.10;29.60;;;4.50;99.90;;;2.29;100.00;100726.13;5122546;28;20216;-79
2020/12/09 03:07:11;;;;;;;52.57;30.60;;;4.50;99.90;;;2.29;100.00;100723.59;5110851;28;20205;-78
2020/12/09 03:09:56;;;;;;;49.17;29.97;;;4.50;99.90;;;2.26;100.00;100719.31;5102006;28;20205;-78
2020/12/09 03:12:42;;;;;;;51.00;29.27;;;4.50;99.90;;;2.23;100.00;100728.63;5102331;28;20275;-79
2020/12/09 03:15:28;;;;;;;48.40;28.77;;;4.60;99.90;;;2.19;100.00;100722.66;5101561;28;20213;-80
2020/12/09 03:18:13;;;;;;;50.70;30.03;;;4.60;99.90;;;2.23;100.00;100738.84;5106262;28;20213;-79
2020/12/09 03:20:58;;;;;;;50.50;29.43;;;4.60;99.90;;;2.22;100.00;100738.00;5109919;28;20219;-76
2020/12/09 03:23:43;;;;;;;50.70;29.60;;;4.60;99.90;;;2.25;100.00;100737.16;5100399;28;20233;-79
2020/12/09 03:26:29;;;;;;;53.57;31.10;;;4.60;99.90;;;2.25;100.00;100742.28;5102464;28;20200;-78
2020/12/09 03:29:15;;;;;;;55.37;32.00;;;4.60;99.90;;;2.26;100.00;100744.84;5110301;28;20209;-78
2020/12/09 03:32:00;;;;;;;40.07;25.50;;;4.60;99.90;;;2.24;100.00;100745.66;5102825;28;20294;-78
2020/12/09 03:34:46;;;;;;;46.47;28.77;;;4.60;99.90;;;2.22;100.00;100744.81;5103122;28;20240;-78
2020/12/09 03:37:31;;;;;;;53.07;30.20;;;4.60;99.90;;;2.23;100.00;100743.94;5105990;28;20197;-79
2020/12/09 03:40:16;;;;;;;51.40;29.70;;;4.60;99.90;;;2.21;100.00;100753.28;5120461;28;20212;-79
2020/12/09 03:43:02;;;;;;;46.27;28.90;;;4.60;99.90;;;2.15;100.00;100750.69;5108698;28;20285;-79
2020/12/09 03:45:53;;;;;;;51.77;30.57;;;4.60;99.90;;;2.18;100.00;100751.56;5108094;28;20219;-78
2020/12/09 03:48:38;;;;;;;53.30;29.57;;;4.60;99.90;;;2.05;100.00;100744.66;5103195;28;20248;-79
2020/12/09 03:51:23;;;;;;;47.87;29.70;;;4.60;99.90;;;1.91;100.00;100747.09;5100720;28;20209;-78
2020/12/09 03:54:09;;;;;;;44.27;26.40;;;4.60;99.90;;;1.82;100.00;100762.31;5103689;28;20233;-80
2020/12/09 03:56:54;;;;;;;46.70;27.57;;;4.60;99.90;;;1.83;100.00;100764.00;5112110;28;20631;-78
2020/12/09 03:59:39;;;;;;;41.50;27.07;;;4.70;99.90;;;1.85;100.00;100763.19;5100381;28;20252;-78
2020/12/09 04:02:25;;;;;;;42.90;26.30;;;4.60;99.90;;;1.88;100.00;100764.94;5099776;28;20247;-78
2020/12/09 04:05:11;;;;;;;42.97;26.73;;;4.50;99.90;;;1.92;100.00;100762.41;5100889;28;20284;-79
2020/12/09 04:07:56;;;;;;;46.07;27.90;;;4.50;99.90;;;2.02;100.00;100763.38;5100342;28;20224;-79
2020/12/09 04:10:41;;;;;;;46.40;27.90;;;4.50;99.90;;;2.06;100.00;100767.63;5114593;28;20221;-78
2020/12/09 04:13:26;;;;;;;51.00;29.17;;;4.50;99.90;;;2.12;100.00;100766.81;5110243;28;20332;-77
2020/12/09 04:16:12;;;;;;;52.60;30.90;;;4.50;99.90;;;2.07;100.00;100764.25;5119490;28;20208;-78
2020/12/09 04:18:58;;;;;;;47.77;29.50;;;4.50;99.90;;;2.01;100.00;100774.41;5121539;28;20231;-79
2020/12/09 04:21:43;;;;;;;50.20;28.17;;;4.50;99.90;;;1.97;100.00;100769.25;5109403;28;20220;-79
2020/12/09 04:24:28;;;;;;;51.87;28.13;;;4.50;99.90;;;1.95;100.00;100769.25;5117124;28;20256;-79
2020/12/09 04:27:14;;;;;;;45.87;29.67;;;4.50;99.90;;;1.93;100.00;100776.88;5110867;28;20203;-77
2020/12/09 04:29:59;;;;;;;49.63;29.53;;;4.50;99.90;;;1.91;100.00;100772.59;5120902;28;20567;-79
2020/12/09 04:32:44;;;;;;;54.47;31.33;;;4.50;99.90;;;1.94;100.00;100775.19;5105691;28;20281;-79
2020/12/09 04:35:30;;;;;;;53.00;29.47;;;4.50;99.90;;;1.82;100.00;100772.53;5113021;28;20271;-79
2020/12/09 04:38:15;;;;;;;46.70;29.00;;;4.50;99.90;;;1.66;100.00;100767.25;5112400;28;20197;-79
2020/12/09 04:41:01;;;;;;;46.50;29.73;;;4.50;99.90;;;1.64;100.00;100776.59;5107406;28;20205;-77
2020/12/09 04:43:49;;;;;;;50.30;29.03;;;4.40;99.90;;;1.72;100.00;100781.78;5111070;28;20639;-79
2020/12/09 04:46:41;;;;;;;49.70;30.90;;;4.40;99.90;;;1.68;100.00;100778.34;5118171;28;20282;-79
2020/12/09 04:49:40;;;;;;;46.07;28.87;;;4.40;99.90;;;1.62;100.00;100775.72;5113842;28;20205;-80
2020/12/09 04:52:58;;;;;;;53.03;29.63;;;4.40;99.90;;;1.46;100.00;100786.59;5112008;28;20208;-80
2020/12/09 04:55:51;;;;;;;52.37;29.37;;;4.40;99.90;;;1.39;100.00;100794.16;5105282;28;20197;-78
2020/12/09 04:58:42;;;;;;;49.77;28.40;;;4.30;99.90;;;1.34;100.00;100795.78;5122906;28;20281;-79
2020/12/09 05:01:34;;;;;;;49.50;29.83;;;4.20;99.90;;;1.35;100.00;100799.22;5118788;28;20232;-80
2020/12/09 05:04:25;;;;;;;50.70;29.23;;;4.20;99.90;;;1.13;100.00;100798.09;5120336;28;20619;-79
2020/12/09 05:07:14;;;;;;;47.67;28.10;;;4.20;99.90;;;1.11;100.00;100792.09;5118427;28;20271;-79
2020/12/09 05:10:06;;;;;;;45.63;26.40;;;4.10;99.90;;;0.88;100.00;100798.59;5105362;28;20236;-79
2020/12/09 05:12:56;;;;;;;44.60;26.53;;;4.10;99.90;;;0.86;100.00;100802.84;5115925;28;20275;-79
2020/12/09 05:15:42;;;;;;;44.50;26.03;;;4.10;99.90;;;0.88;100.00;100810.50;5105823;28;20205;-79
2020/12/09 05:18:45;;;;;;;50.13;27.83;;;4.10;99.90;;;0.94;100.00;100813.13;5105454;28;20266;-81
2020/12/09 05:21:45;;;;;;;45.47;26.10;;;3.90;99.90;;;0.98;100.00;100809.78;5105873;28;20209;-78
2020/12/09 05:24:30;;;;;;;47.83;28.27;;;3.90;99.90;;;1.15;100.00;100809.16;5109924;28;20301;-78
2020/12/09 05:27:17;;;;;;;49.73;27.63;;;3.80;99.90;;;1.13;100.00;100810.84;5103431;28;20209;-80
2020/12/09 05:30:02;;;;;;;50.37;29.37;;;3.80;99.90;;;1.02;100.00;100809.00;5125942;27;20208;-78
2020/12/09 05:32:54;;;;;;;55.33;29.50;;;3.80;99.90;;;0.92;100.00;100807.16;5121189;28;20233;-80
2020/12/09 05:35:40;;;;;;;51.17;27.97;;;3.70;99.90;;;0.85;100.00;100810.44;5111395;28;20315;-80
2020/12/09 05:38:25;;;;;;;51.70;28.73;;;3.70;99.90;;;0.62;100.00;100808.44;5109699;28;20274;-78
2020/12/09 05:41:12;;;;;;;51.67;29.30;;;3.70;99.90;;;0.53;100.00;100815.91;5107576;28;20291;-78
2020/12/09 05:44:01;;;;;;;50.87;28.13;;;3.60;99.90;;;0.33;100.00;100810.53;5097019;28;20229;-77
2020/12/09 05:46:56;;;;;;;45.77;26.23;;;3.50;99.90;;;0.08;100.00;100815.19;5110564;28;20228;-78
2020/12/09 05:49:42;;;;;;;46.57;26.57;;;3.50;99.90;;;-0.09;100.00;100829.28;5105753;28;20283;-78
2020/12/09 05:52:27;;;;;;;46.07;26.33;;;3.40;99.90;;;0.05;100.00;100819.38;5099534;28;20293;-78
2020/12/09 05:55:13;;;;;;;51.37;27.93;;;3.40;99.90;;;0.04;100.00;100823.59;5119439;28;20258;-77
2020/12/09 05:58:22;;;;;;;46.97;26.87;;;3.30;99.90;;;-0.20;100.00;100824.88;5123166;28;20288;-78
2020/12/09 06:01:18;;;;;;;50.37;26.90;;;3.20;99.90;;;-0.42;100.00;100822.75;5111623;28;20212;-78
2020/12/09 06:04:03;;;;;;;46.60;26.43;;;3.10;99.90;;;-0.69;100.00;100826.47;5115889;28;20795;-78
2020/12/09 06:06:55;;;;;;;45.67;25.80;;;3.00;99.90;;;-0.69;100.00;100828.13;5121007;28;20200;-78
2020/12/09 06:09:41;;;;;;;43.07;24.63;;;2.90;99.90;;;-0.66;100.00;100830.75;5120718;28;20220;-76
2020/12/09 06:12:26;;;;;;;54.70;30.60;;;2.80;99.90;;;-0.14;100.00;100834.28;5112085;28;20228;-76
2020/12/09 06:15:15;;;;;;;56.17;30.57;;;2.70;99.90;;;0.03;100.00;100831.19;5102974;28;20200;-78
2020/12/09 06:18:10;;;;;;;61.43;32.97;;;2.70;99.90;;;0.41;100.00;100829.31;5101715;28;20215;-77
2020/12/09 06:20:56;;;;;;;73.80;34.83;;;2.60;99.90;;;0.52;100.00;100819.31;5108569;28;20213;-78
2020/12/09 06:23:43;;;;;;;86.50;36.37;;;2.50;99.90;;;0.59;100.00;100825.34;5105211;28;20232;-78
2020/12/09 06:27:05;;;;;;;103.17;38.90;;;2.50;99.90;;;0.54;100.00;100826.97;5108908;28;20607;-78
2020/12/09 06:29:51;;;;;;;101.80;41.50;;;2.50;99.90;;;0.56;100.00;100838.91;5104903;28;20237;-78
2020/12/09 06:32:46;;;;;;;120.20;44.87;;;2.60;99.90;;;0.62;100.00;100833.91;5110036;28;20224;-78
2020/12/09 06:56:30;;;;;;;204.67;39.63;;;2.70;99.90;;;-0.06;100.00;100858.19;5022950;28;20758;-76
2020/12/09 06:59:25;;;;;;;173.20;36.33;;;2.60;99.90;;;-0.11;100.00;100854.69;5057135;28;20206;-77
2020/12/09 07:02:24;;;;;;;162.40;34.73;;;2.60;99.90;;;-0.20;100.00;100864.69;5094307;28;20200;-77
2020/12/09 07:05:11;;;;;;;167.63;35.13;;;2.60;99.90;;;-0.26;100.00;100862.03;5104577;28;20816;-78
2020/12/09 07:08:05;;;;;;;186.17;37.10;;;2.60;99.90;;;-0.31;100.00;100872.13;5099369;28;20582;-78
2020/12/09 07:10:51;;;;;;;135.13;33.57;;;2.60;99.90;;;-0.30;100.00;100873.81;5105646;28;20724;-77
2020/12/09 07:13:37;;;;;;;128.33;34.27;;;2.60;99.90;;;-0.23;100.00;100869.72;5106979;28;20220;-77
2020/12/09 07:16:28;;;;;;;139.47;33.10;;;2.60;99.90;;;-0.32;100.00;100874.63;5100450;28;20206;-77
2020/12/09 07:19:14;;;;;;;133.50;34.47;;;2.60;99.90;;;-0.33;100.00;100883.91;5097568;28;20204;-78
2020/12/09 07:22:03;;;;;;;115.57;35.03;;;2.60;99.90;;;-0.38;100.00;100883.81;5102052;28;20229;-78
2020/12/09 07:24:48;;;;;;;88.00;30.23;;;2.60;99.90;;;-0.37;100.00;100887.22;5097003;28;20267;-77
2020/12/09 07:27:36;;;;;;;94.43;32.93;;;2.60;99.90;;;-0.48;100.00;100891.25;5098131;28;20206;-77
2020/12/09 07:30:23;;;;;;;120.20;34.10;;;2.60;99.90;;;-0.65;100.00;100890.88;5114486;28;20220;-76
2020/12/09 07:33:08;;;;;;;133.13;34.03;;;2.60;99.90;;;-0.72;100.00;100902.59;5098474;28;20237;-75
2020/12/09 07:36:01;;;;;;;108.07;32.73;;;2.60;99.90;;;-0.77;100.00;100899.97;5112501;28;20776;-77
2020/12/09 07:38:46;;;;;;;102.07;33.73;;;2.60;99.90;;;-0.73;100.00;100898.34;5109827;28;20282;-77
2020/12/09 07:41:42;;;;;;;93.03;32.23;;;2.50;99.90;;;-0.73;100.00;100889.03;5096682;28;20198;-77
2020/12/09 07:44:29;;;;;;;111.47;33.13;;;2.50;99.90;;;-0.77;100.00;100902.50;5100320;28;20233;-77
2020/12/09 07:47:23;;;;;;;83.83;29.60;;;2.50;99.90;;;-0.68;100.00;100906.06;5110043;28;20213;-78
2020/12/09 07:50:08;;;;;;;94.83;33.23;;;2.40;99.90;;;-0.73;100.00;100904.25;5097742;28;20335;-77
2020/12/09 07:52:53;;;;;;;112.60;35.73;;;2.40;99.90;;;-0.74;100.00;100909.31;5111536;28;20282;-77
2020/12/09 07:55:39;;;;;;;109.93;34.43;;;2.40;99.90;;;-0.89;100.00;100918.31;5105421;28;20350;-76
2020/12/09 07:58:25;;;;;;;83.37;29.10;;;2.40;99.90;;;-0.84;100.00;100917.53;5109868;28;20209;-75
2020/12/09 08:01:26;;;;;;;95.23;33.43;;;2.40;99.90;;;-0.83;100.00;100916.72;5095390;28;20303;-77
2020/12/09 08:04:13;;;;;;;70.13;28.27;;;2.30;99.90;;;-0.86;100.00;100919.19;5102689;28;20252;-74
2020/12/09 08:07:15;;;;;;;66.93;28.60;;;2.30;99.90;;;-0.80;100.00;100920.19;5106410;28;20686;-76
2020/12/09 08:10:11;;;;;;;97.30;34.87;;;2.30;99.90;;;-0.83;100.00;100922.66;5099558;28;20287;-76
2020/12/09 08:13:12;;;;;;;63.47;27.63;;;2.30;99.90;;;-0.84;100.00;100920.09;5110182;28;20232;-77
2020/12/09 08:16:02;;;;;;;91.47;33.80;;;2.20;99.90;;;-0.92;100.00;100925.00;5102727;28;20576;-76
2020/12/09 08:18:48;;;;;;;123.63;39.10;;;2.20;99.90;;;-1.05;100.00;100934.00;5109978;28;20344;-77
2020/12/09 08:21:34;;;;;;;58.47;22.87;;;2.20;99.90;;;-1.06;100.00;100937.38;5108068;28;20220;-76
2020/12/09 08:24:19;;;;;;;62.07;28.47;;;2.20;99.90;;;-1.01;100.00;100928.16;5092682;28;20300;-77
2020/12/09 08:27:19;;;;;;;66.27;32.87;;;2.10;99.90;;;-0.92;100.00;100927.53;5106794;28;20808;-77
2020/12/09 08:30:09;;;;;;;62.97;30.37;;;2.10;99.90;;;-0.84;100.00;100940.41;5106814;28;20578;-76
2020/12/09 08:33:15;;;;;;;89.57;37.13;;;2.10;99.90;;;-0.99;100.00;100925.66;5087397;28;20245;-77
2020/12/09 08:36:07;;;;;;;66.47;30.20;;;2.10;99.90;;;-0.92;100.00;100935.16;5105314;28;20258;-78
2020/12/09 08:38:59;;;;;;;82.63;36.00;;;2.10;99.90;;;-0.89;100.00;100927.59;5108054;28;20282;-77
2020/12/09 08:46:37;;;;;;;68.97;32.97;;;2.00;99.90;;;-0.82;100.00;100924.38;5106148;28;20254;-81
2020/12/09 08:49:23;;;;;;;99.63;36.53;;;2.00;99.90;;;-0.92;100.00;100927.53;5087661;28;20375;-77
2020/12/09 08:52:10;;;;;;;94.77;37.13;;;2.00;99.90;;;-0.95;100.00;100940.16;5088187;28;20217;-79
2020/12/09 08:54:56;;;;;;;78.47;34.40;;;1.90;99.90;;;-0.96;100.00;100929.16;5092298;28;20717;-77
2020/12/09 08:57:41;;;;;;;71.23;32.50;;;2.00;99.90;;;-0.90;100.00;100925.88;5091724;28;20213;-77
2020/12/09 09:00:26;;;;;;;53.50;23.37;;;1.90;99.90;;;-0.91;100.00;100924.19;5099524;28;20208;-77
2020/12/09 09:03:19;;;;;;;77.03;27.57;;;1.90;99.90;;;-0.87;100.00;100920.91;5096804;28;20740;-78
2020/12/09 09:06:04;;;;;;;98.13;37.40;;;1.90;99.90;;;-0.90;100.00;100930.94;5098988;28;20201;-79
2020/12/09 09:08:50;;;;;;;94.67;35.97;;;1.90;99.90;;;-0.95;100.00;100935.09;5092142;28;20920;-78
2020/12/09 09:11:36;;;;;;;104.20;36.00;;;1.90;99.90;;;-1.12;100.00;100920.31;5103468;28;20212;-79
2020/12/09 09:14:21;;;;;;;85.53;33.67;;;2.00;99.90;;;-1.01;100.00;100909.56;5111846;28;20228;-78
2020/12/09 09:17:11;;;;;;;87.47;35.30;;;2.00;99.90;;;-1.00;100.00;100914.66;5111352;28;20241;-78
2020/12/09 09:19:57;;;;;;;73.10;33.13;;;2.00;99.90;;;-0.88;100.00;100914.09;5110268;28;20701;-76
2020/12/09 09:22:43;;;;;;;71.87;32.77;;;2.00;99.90;;;-0.86;100.00;100924.28;5111132;28;20724;-78
2020/12/09 09:25:29;;;;;;;87.20;38.87;;;2.00;99.90;;;-0.86;100.00;100922.59;5111723;28;20720;-76
2020/12/09 09:28:16;;;;;;;81.17;37.60;;;2.00;99.90;;;-0.86;100.00;100927.66;5110511;28;20261;-77
2020/12/09 09:31:01;;;;;;;74.93;36.27;;;2.00;99.90;;;-0.79;100.00;100933.75;5090426;28;20332;-78
2020/12/09 09:33:46;;;;;;;71.87;32.87;;;2.00;99.90;;;-0.79;100.00;100926.13;5090865;28;20399;-76
2020/12/09 09:36:32;;;;;;;81.53;37.40;;;2.00;99.90;;;-0.86;100.00;100937.81;5092560;28;20271;-80
2020/12/09 09:39:17;;;;;;;81.57;34.17;;;2.00;99.90;;;-0.98;100.00;100937.56;5106556;28;20258;-78
2020/12/09 09:42:03;;;;;;;83.43;33.27;;;2.00;99.90;;;-0.99;100.00;100936.69;5110372;28;20713;-76
2020/12/09 09:44:51;;;;;;;112.23;38.27;;;2.00;99.90;;;-0.90;100.00;100936.03;5092246;28;20205;-78
2020/12/09 09:47:37;;;;;;;83.63;35.17;;;2.00;99.90;;;-0.93;100.00;100938.50;5096094;28;20343;-77
2020/12/09 09:50:22;;;;;;;91.10;36.53;;;2.00;99.90;;;-1.02;100.00;100946.75;5100463;28;20204;-78
2020/12/09 09:53:07;;;;;;;93.43;35.57;;;2.10;99.90;;;-1.18;100.00;100952.28;5110492;28;20232;-78
2020/12/09 09:55:52;;;;;;;104.57;36.17;;;2.10;99.90;;;-1.15;100.00;100939.66;5110483;28;20785;-77
2020/12/09 09:58:38;;;;;;;87.83;36.67;;;2.00;99.90;;;-1.11;100.00;100947.44;5110820;28;20213;-76
2020/12/09 10:01:24;;;;;;;74.83;35.10;;;2.00;99.90;;;-1.12;100.00;100938.09;5093509;28;20581;-76
2020/12/09 10:04:13;;;;;;;73.80;33.07;;;2.00;99.90;;;-1.01;100.00;100940.88;5105201;28;20358;-78
2020/12/09 10:06:58;;;;;;;75.83;36.33;;;2.00;99.90;;;-0.98;100.00;100942.63;5090082;28;20205;-77
2020/12/09 10:09:43;;;;;;;107.60;38.53;;;2.00;99.90;;;-1.04;100.00;100943.34;5104516;28;20795;-77
2020/12/09 10:12:30;;;;;;;89.97;38.23;;;2.00;99.90;;;-1.16;100.00;100941.38;5099245;28;20245;-77
2020/12/09 10:15:15;;;;;;;68.50;31.73;;;2.00;99.90;;;-1.06;100.00;100950.91;5089777;28;20344;-78
2020/12/09 10:18:02;;;;;;;69.90;30.93;;;2.00;99.90;;;-1.15;100.00;100945.63;5089803;28;20209;-77
2020/12/09 10:20:47;;;;;;;68.00;31.47;;;2.00;99.90;;;-1.10;100.00;100951.66;5108994;28;20704;-77
2020/12/09 10:23:32;;;;;;;65.00;30.40;;;2.00;99.90;;;-1.11;100.00;100946.53;5095468;28;20330;-78
2020/12/09 10:26:18;;;;;;;69.93;33.20;;;2.00;99.90;;;-1.14;100.00;100943.94;5099282;28;20687;-76
2020/12/09 10:29:07;;;;;;;62.43;30.03;;;2.00;99.90;;;-1.12;100.00;100945.69;5105564;28;20713;-77
2020/12/09 10:31:52;;;;;;;72.30;29.37;;;2.00;99.90;;;-1.01;100.00;100947.63;5098332;28;20652;-77
2020/12/09 10:34:40;;;;;;;68.70;32.17;;;2.00;99.90;;;-1.06;100.00;100945.84;5104088;28;20225;-77
2020/12/09 10:37:25;;;;;;;71.37;31.07;;;2.00;99.90;;;-0.91;100.00;100941.97;5103912;28;20208;-77
2020/12/09 10:40:11;;;;;;;62.97;30.00;;;2.00;99.90;;;-0.80;100.00;100947.28;5089663;28;20288;-76
2020/12/09 10:42:56;;;;;;;73.13;33.67;;;2.00;99.90;;;-0.80;100.00;100947.28;5088697;28;20214;-77
2020/12/09 10:45:41;;;;;;;68.17;32.50;;;1.90;99.90;;;-0.82;100.00;100946.38;5104381;28;20310;-77
2020/12/09 10:48:26;;;;;;;68.50;30.67;;;2.00;99.90;;;-0.79;100.00;100944.75;5089891;28;20307;-77
2020/12/09 10:51:12;;;;;;;76.60;33.10;;;2.00;99.90;;;-0.77;100.00;100940.59;5088604;28;20632;-77
2020/12/09 10:53:59;;;;;;;72.97;32.10;;;2.00;99.90;;;-0.77;100.00;100935.53;5099562;28;20228;-78
2020/12/09 10:56:45;;;;;;;74.13;32.07;;;2.10;99.90;;;-0.73;100.00;100933.91;5103498;28;20861;-77
2020/12/09 10:59:30;;;;;;;73.90;32.53;;;2.10;99.90;;;-0.73;100.00;100924.59;5089084;28;20279;-77
2020/12/09 11:02:15;;;;;;;75.17;31.07;;;2.10;99.90;;;-0.69;100.00;100934.81;5091879;28;20208;-77
2020/12/09 11:05:00;;;;;;;88.10;40.23;;;2.20;99.90;;;-0.61;100.00;100933.31;5094417;28;20629;-75
2020/12/09 11:07:47;;;;;;;76.47;29.20;;;2.10;99.90;;;-0.58;100.00;100935.91;5109743;28;20694;-77
2020/12/09 11:10:32;;;;;;;85.47;37.73;;;2.20;99.90;;;-0.53;100.00;100931.81;5095450;28;20250;-75
2020/12/09 11:13:17;;;;;;;98.03;39.33;;;2.10;99.90;;;-0.54;100.00;100930.94;5090462;28;20236;-78
2020/12/09 11:16:03;;;;;;;93.63;35.77;;;2.20;99.90;;;-0.42;100.00;100930.31;5108424;28;20248;-77
2020/12/09 11:18:49;;;;;;;103.13;37.63;;;2.20;99.90;;;-0.22;100.00;100932.44;5089148;28;20570;-77
2020/12/09 11:21:38;;;;;;;86.27;34.70;;;2.20;99.90;;;-0.28;100.00;100942.47;5096086;28;20208;-76
2020/12/09 11:24:25;;;;;;;103.80;38.83;;;2.30;99.90;;;-0.25;100.00;100940.88;5108617;27;20290;-76
2020/12/09 11:27:10;;;;;;;95.03;38.83;;;2.30;99.90;;;-0.32;100.00;100940.72;5101896;28;20322;-78
2020/12/09 11:29:55;;;;;;;91.03;38.50;;;2.30;99.90;;;-0.34;100.00;100929.63;5104084;28;20207;-79
2020/12/09 11:32:40;;;;;;;100.80;39.97;;;2.40;99.90;;;-0.32;100.00;100936.47;5097654;28;20236;-78
2020/12/09 11:35:26;;;;;;;87.27;34.43;;;2.40;99.90;;;-0.27;100.00;100931.47;5103035;28;20201;-78
2020/12/09 11:38:11;;;;;;;92.00;36.40;;;2.40;99.90;;;-0.17;100.00;100940.16;5105322;28;20310;-78
2020/12/09 11:40:57;;;;;;;99.57;39.10;;;2.40;99.90;;;-0.14;100.00;100933.44;5089872;28;20278;-78
2020/12/09 11:43:44;;;;;;;84.77;35.03;;;2.50;99.90;;;-0.20;100.00;100924.00;5092778;28;20225;-78
2020/12/09 11:46:29;;;;;;;97.77;39.50;;;2.50;99.90;;;-0.14;100.00;100925.81;5089606;28;20206;-78
2020/12/09 11:49:16;;;;;;;96.57;41.20;;;2.50;99.90;;;-0.08;100.00;100922.53;5102942;28;20213;-78
2020/12/09 11:52:01;;;;;;;99.93;45.47;;;2.50;99.90;;;-0.26;100.00;100912.88;5097383;28;20205;-78